sensor_id;sensor_type;location;lat;lon;timestamp;P1;durP1;ratioP1;P2;durP2;ratioP2
37164;SDS011;23057;48.554;14.454;2023-07-20T00:01:40;7.45;;;3.20;;
37164;SDS011;23057;48.554;14.454;2023-07-20T00:04:14;4.82;;;2.67;;
37164;SDS011;23057;48.554;14.454;2023-07-20T00:06:45;6.53;;;3.08;;
37164;SDS011;23057;48.554;14.454;2023-07-20T00:09:16;4.82;;;3.13;;
37164;SDS011;23057;48.554;14.454;2023-07-20T00:11:50;6.00;;;3.08;;
37164;SDS011;23057;48.554;14.454;2023-07-20T00:14:22;5.05;;;3.08;;
37164;SDS011;23057;48.554;14.454;2023-07-20T00:16:54;7.07;;;3.10;;
37164;SDS011;23057;48.554;14.454;2023-07-20T00:19:26;3.97;;;2.70;;
37164;SDS011;23057;48.554;14.454;2023-07-20T00:21:58;6.45;;;3.13;;
37164;SDS011;23057;48.554;14.454;2023-07-20T00:24:30;10.13;;;2.65;;
37164;SDS011;23057;48.554;14.454;2023-07-20T00:27:01;5.82;;;2.97;;
37164;SDS011;23057;48.554;14.454;2023-07-20T00:29:32;7.03;;;2.90;;
37164;SDS011;23057;48.554;14.454;2023-07-20T00:32:03;5.35;;;2.45;;
37164;SDS011;23057;48.554;14.454;2023-07-20T00:34:35;4.07;;;2.60;;
37164;SDS011;23057;48.554;14.454;2023-07-20T00:37:06;5.47;;;2.70;;
37164;SDS011;23057;48.554;14.454;2023-07-20T00:39:37;5.10;;;2.50;;
37164;SDS011;23057;48.554;14.454;2023-07-20T00:42:08;6.85;;;2.53;;
37164;SDS011;23057;48.554;14.454;2023-07-20T00:44:39;5.10;;;2.42;;
37164;SDS011;23057;48.554;14.454;2023-07-20T00:47:10;7.00;;;2.70;;
37164;SDS011;23057;48.554;14.454;2023-07-20T00:49:41;5.18;;;2.78;;
37164;SDS011;23057;48.554;14.454;2023-07-20T00:52:13;5.82;;;2.55;;
37164;SDS011;23057;48.554;14.454;2023-07-20T00:54:45;3.97;;;2.53;;
37164;SDS011;23057;48.554;14.454;2023-07-20T00:57:17;5.13;;;2.70;;
37164;SDS011;23057;48.554;14.454;2023-07-20T00:59:49;7.22;;;2.72;;
37164;SDS011;23057;48.554;14.454;2023-07-20T01:02:20;4.32;;;2.13;;
37164;SDS011;23057;48.554;14.454;2023-07-20T01:04:51;4.53;;;2.28;;
37164;SDS011;23057;48.554;14.454;2023-07-20T01:07:26;5.35;;;2.72;;
37164;SDS011;23057;48.554;14.454;2023-07-20T01:10:31;3.20;;;2.65;;
37164;SDS011;23057;48.554;14.454;2023-07-20T01:13:13;10.90;;;2.67;;
37164;SDS011;23057;48.554;14.454;2023-07-20T01:15:53;3.78;;;2.45;;
37164;SDS011;23057;48.554;14.454;2023-07-20T01:18:30;6.85;;;2.53;;
37164;SDS011;23057;48.554;14.454;2023-07-20T01:21:06;5.65;;;2.42;;
37164;SDS011;23057;48.554;14.454;2023-07-20T01:24:31;5.00;;;2.90;;
37164;SDS011;23057;48.554;14.454;2023-07-20T01:33:18;6.47;;;2.63;;
37164;SDS011;23057;48.554;14.454;2023-07-20T01:35:55;3.90;;;2.47;;
37164;SDS011;23057;48.554;14.454;2023-07-20T01:38:29;3.50;;;2.10;;
37164;SDS011;23057;48.554;14.454;2023-07-20T01:41:01;3.80;;;2.20;;
37164;SDS011;23057;48.554;14.454;2023-07-20T01:43:33;5.38;;;2.78;;
37164;SDS011;23057;48.554;14.454;2023-07-20T01:46:04;3.10;;;2.10;;
37164;SDS011;23057;48.554;14.454;2023-07-20T01:48:35;6.00;;;2.10;;
37164;SDS011;23057;48.554;14.454;2023-07-20T01:51:06;6.43;;;2.33;;
37164;SDS011;23057;48.554;14.454;2023-07-20T01:53:37;4.32;;;2.55;;
37164;SDS011;23057;48.554;14.454;2023-07-20T01:56:08;4.05;;;2.08;;
37164;SDS011;23057;48.554;14.454;2023-07-20T01:58:39;3.85;;;2.30;;
37164;SDS011;23057;48.554;14.454;2023-07-20T02:01:10;4.78;;;2.20;;
37164;SDS011;23057;48.554;14.454;2023-07-20T02:03:41;5.57;;;2.47;;
37164;SDS011;23057;48.554;14.454;2023-07-20T02:06:12;4.93;;;2.22;;
37164;SDS011;23057;48.554;14.454;2023-07-20T02:08:42;4.43;;;2.42;;
37164;SDS011;23057;48.554;14.454;2023-07-20T02:11:13;4.13;;;2.28;;
37164;SDS011;23057;48.554;14.454;2023-07-20T02:13:44;4.65;;;2.55;;
37164;SDS011;23057;48.554;14.454;2023-07-20T02:16:15;3.55;;;1.98;;
37164;SDS011;23057;48.554;14.454;2023-07-20T02:18:45;4.07;;;2.40;;
37164;SDS011;23057;48.554;14.454;2023-07-20T02:21:16;4.20;;;2.45;;
37164;SDS011;23057;48.554;14.454;2023-07-20T02:23:47;4.57;;;2.25;;
37164;SDS011;23057;48.554;14.454;2023-07-20T02:26:18;6.05;;;2.42;;
37164;SDS011;23057;48.554;14.454;2023-07-20T02:28:49;4.70;;;2.35;;
37164;SDS011;23057;48.554;14.454;2023-07-20T02:31:20;4.15;;;2.50;;
37164;SDS011;23057;48.554;14.454;2023-07-20T02:33:51;4.80;;;2.53;;
37164;SDS011;23057;48.554;14.454;2023-07-20T02:36:22;4.22;;;2.17;;
37164;SDS011;23057;48.554;14.454;2023-07-20T02:38:53;4.43;;;2.40;;
37164;SDS011;23057;48.554;14.454;2023-07-20T02:41:24;8.20;;;2.45;;
37164;SDS011;23057;48.554;14.454;2023-07-20T02:43:55;4.93;;;2.65;;
37164;SDS011;23057;48.554;14.454;2023-07-20T02:46:26;4.32;;;2.67;;
37164;SDS011;23057;48.554;14.454;2023-07-20T02:49:00;3.47;;;2.08;;
37164;SDS011;23057;48.554;14.454;2023-07-20T02:51:31;6.10;;;2.63;;
37164;SDS011;23057;48.554;14.454;2023-07-20T02:54:02;7.57;;;2.45;;
37164;SDS011;23057;48.554;14.454;2023-07-20T02:56:33;3.10;;;2.13;;
37164;SDS011;23057;48.554;14.454;2023-07-20T02:59:04;5.53;;;2.53;;
37164;SDS011;23057;48.554;14.454;2023-07-20T03:01:35;4.13;;;2.30;;
37164;SDS011;23057;48.554;14.454;2023-07-20T03:04:06;4.30;;;2.40;;
37164;SDS011;23057;48.554;14.454;2023-07-20T03:06:39;3.83;;;2.55;;
37164;SDS011;23057;48.554;14.454;2023-07-20T03:09:10;6.55;;;2.80;;
37164;SDS011;23057;48.554;14.454;2023-07-20T03:11:40;6.00;;;2.25;;
37164;SDS011;23057;48.554;14.454;2023-07-20T03:14:11;4.18;;;2.35;;
37164;SDS011;23057;48.554;14.454;2023-07-20T03:16:43;4.72;;;2.72;;
37164;SDS011;23057;48.554;14.454;2023-07-20T03:19:14;3.25;;;2.20;;
37164;SDS011;23057;48.554;14.454;2023-07-20T03:21:45;3.83;;;2.35;;
37164;SDS011;23057;48.554;14.454;2023-07-20T03:24:16;5.70;;;2.03;;
37164;SDS011;23057;48.554;14.454;2023-07-20T03:26:47;3.45;;;2.30;;
37164;SDS011;23057;48.554;14.454;2023-07-20T03:29:18;5.78;;;2.58;;
37164;SDS011;23057;48.554;14.454;2023-07-20T03:31:49;4.72;;;2.90;;
37164;SDS011;23057;48.554;14.454;2023-07-20T03:34:20;6.55;;;2.80;;
37164;SDS011;23057;48.554;14.454;2023-07-20T03:36:51;7.53;;;2.75;;
37164;SDS011;23057;48.554;14.454;2023-07-20T03:39:22;3.90;;;2.22;;
37164;SDS011;23057;48.554;14.454;2023-07-20T03:41:53;4.07;;;2.60;;
37164;SDS011;23057;48.554;14.454;2023-07-20T03:44:24;6.20;;;2.30;;
37164;SDS011;23057;48.554;14.454;2023-07-20T03:46:55;6.50;;;2.67;;
37164;SDS011;23057;48.554;14.454;2023-07-20T03:49:25;4.57;;;2.70;;
37164;SDS011;23057;48.554;14.454;2023-07-20T03:51:56;5.75;;;2.75;;
37164;SDS011;23057;48.554;14.454;2023-07-20T03:54:27;5.45;;;2.67;;
37164;SDS011;23057;48.554;14.454;2023-07-20T03:56:58;4.13;;;2.22;;
37164;SDS011;23057;48.554;14.454;2023-07-20T03:59:30;4.25;;;2.08;;
37164;SDS011;23057;48.554;14.454;2023-07-20T04:02:01;3.78;;;2.10;;
37164;SDS011;23057;48.554;14.454;2023-07-20T04:04:32;6.50;;;2.95;;
37164;SDS011;23057;48.554;14.454;2023-07-20T04:07:03;6.35;;;2.58;;
37164;SDS011;23057;48.554;14.454;2023-07-20T04:09:34;6.43;;;2.50;;
37164;SDS011;23057;48.554;14.454;2023-07-20T04:12:05;6.65;;;2.42;;
37164;SDS011;23057;48.554;14.454;2023-07-20T04:14:36;4.75;;;2.35;;
37164;SDS011;23057;48.554;14.454;2023-07-20T04:17:07;6.32;;;2.55;;
37164;SDS011;23057;48.554;14.454;2023-07-20T04:19:38;4.13;;;2.70;;
37164;SDS011;23057;48.554;14.454;2023-07-20T04:22:09;4.28;;;2.20;;
37164;SDS011;23057;48.554;14.454;2023-07-20T04:24:40;7.47;;;2.80;;
37164;SDS011;23057;48.554;14.454;2023-07-20T04:27:13;6.30;;;2.95;;
37164;SDS011;23057;48.554;14.454;2023-07-20T04:29:43;5.22;;;2.53;;
37164;SDS011;23057;48.554;14.454;2023-07-20T04:32:14;4.47;;;2.60;;
37164;SDS011;23057;48.554;14.454;2023-07-20T04:34:45;6.50;;;3.10;;
37164;SDS011;23057;48.554;14.454;2023-07-20T04:37:16;4.70;;;2.50;;
37164;SDS011;23057;48.554;14.454;2023-07-20T04:39:46;6.03;;;2.72;;
37164;SDS011;23057;48.554;14.454;2023-07-20T04:42:17;5.82;;;2.70;;
37164;SDS011;23057;48.554;14.454;2023-07-20T04:44:48;5.05;;;2.35;;
37164;SDS011;23057;48.554;14.454;2023-07-20T04:47:19;4.55;;;2.47;;
37164;SDS011;23057;48.554;14.454;2023-07-20T04:49:50;5.30;;;2.72;;
37164;SDS011;23057;48.554;14.454;2023-07-20T04:52:20;5.88;;;2.65;;
37164;SDS011;23057;48.554;14.454;2023-07-20T04:54:51;6.97;;;2.97;;
37164;SDS011;23057;48.554;14.454;2023-07-20T04:57:23;3.72;;;2.30;;
37164;SDS011;23057;48.554;14.454;2023-07-20T04:59:54;4.82;;;2.47;;
37164;SDS011;23057;48.554;14.454;2023-07-20T05:02:25;6.13;;;2.60;;
37164;SDS011;23057;48.554;14.454;2023-07-20T05:04:55;3.88;;;2.90;;
37164;SDS011;23057;48.554;14.454;2023-07-20T05:07:26;4.30;;;2.58;;
37164;SDS011;23057;48.554;14.454;2023-07-20T05:09:57;6.00;;;3.30;;
37164;SDS011;23057;48.554;14.454;2023-07-20T05:12:28;6.85;;;3.08;;
37164;SDS011;23057;48.554;14.454;2023-07-20T05:14:59;3.95;;;2.50;;
37164;SDS011;23057;48.554;14.454;2023-07-20T05:17:30;7.82;;;2.75;;
37164;SDS011;23057;48.554;14.454;2023-07-20T05:20:01;6.15;;;3.22;;
37164;SDS011;23057;48.554;14.454;2023-07-20T05:22:34;3.58;;;2.42;;
37164;SDS011;23057;48.554;14.454;2023-07-20T05:25:09;6.18;;;2.80;;
37164;SDS011;23057;48.554;14.454;2023-07-20T05:27:41;6.72;;;2.65;;
37164;SDS011;23057;48.554;14.454;2023-07-20T05:30:12;4.43;;;2.75;;
37164;SDS011;23057;48.554;14.454;2023-07-20T05:32:43;4.32;;;2.78;;
37164;SDS011;23057;48.554;14.454;2023-07-20T05:35:21;6.35;;;2.83;;
37164;SDS011;23057;48.554;14.454;2023-07-20T05:37:52;4.18;;;2.47;;
37164;SDS011;23057;48.554;14.454;2023-07-20T05:40:23;4.63;;;2.22;;
37164;SDS011;23057;48.554;14.454;2023-07-20T05:42:54;4.97;;;2.75;;
37164;SDS011;23057;48.554;14.454;2023-07-20T05:45:26;6.78;;;3.05;;
37164;SDS011;23057;48.554;14.454;2023-07-20T05:47:57;5.70;;;2.72;;
37164;SDS011;23057;48.554;14.454;2023-07-20T05:50:28;8.68;;;2.85;;
37164;SDS011;23057;48.554;14.454;2023-07-20T05:52:59;5.95;;;3.00;;
37164;SDS011;23057;48.554;14.454;2023-07-20T05:55:31;5.20;;;3.38;;
37164;SDS011;23057;48.554;14.454;2023-07-20T05:58:02;5.25;;;2.90;;
37164;SDS011;23057;48.554;14.454;2023-07-20T06:00:34;6.70;;;2.80;;
37164;SDS011;23057;48.554;14.454;2023-07-20T06:03:05;5.22;;;2.85;;
37164;SDS011;23057;48.554;14.454;2023-07-20T06:05:35;11.32;;;3.55;;
37164;SDS011;23057;48.554;14.454;2023-07-20T06:08:06;6.85;;;3.00;;
37164;SDS011;23057;48.554;14.454;2023-07-20T06:10:37;5.60;;;3.25;;
37164;SDS011;23057;48.554;14.454;2023-07-20T06:13:08;5.10;;;2.88;;
37164;SDS011;23057;48.554;14.454;2023-07-20T06:15:39;4.30;;;2.70;;
37164;SDS011;23057;48.554;14.454;2023-07-20T06:18:11;7.72;;;3.03;;
37164;SDS011;23057;48.554;14.454;2023-07-20T06:20:42;7.35;;;3.25;;
37164;SDS011;23057;48.554;14.454;2023-07-20T06:23:13;4.38;;;3.10;;
37164;SDS011;23057;48.554;14.454;2023-07-20T06:25:44;6.30;;;3.53;;
37164;SDS011;23057;48.554;14.454;2023-07-20T06:28:15;5.35;;;3.22;;
37164;SDS011;23057;48.554;14.454;2023-07-20T06:30:46;4.93;;;3.83;;
37164;SDS011;23057;48.554;14.454;2023-07-20T06:33:17;7.10;;;3.65;;
37164;SDS011;23057;48.554;14.454;2023-07-20T06:35:48;6.85;;;3.60;;
37164;SDS011;23057;48.554;14.454;2023-07-20T06:38:19;8.55;;;3.70;;
37164;SDS011;23057;48.554;14.454;2023-07-20T06:40:50;5.63;;;3.90;;
37164;SDS011;23057;48.554;14.454;2023-07-20T06:43:21;6.47;;;3.63;;
37164;SDS011;23057;48.554;14.454;2023-07-20T06:45:52;5.90;;;3.70;;
37164;SDS011;23057;48.554;14.454;2023-07-20T06:48:24;6.07;;;4.00;;
37164;SDS011;23057;48.554;14.454;2023-07-20T06:50:55;6.43;;;3.50;;
37164;SDS011;23057;48.554;14.454;2023-07-20T06:53:26;6.55;;;3.88;;
37164;SDS011;23057;48.554;14.454;2023-07-20T06:55:56;6.32;;;3.40;;
37164;SDS011;23057;48.554;14.454;2023-07-20T06:58:27;5.25;;;3.38;;
37164;SDS011;23057;48.554;14.454;2023-07-20T07:00:58;7.78;;;3.35;;
37164;SDS011;23057;48.554;14.454;2023-07-20T07:03:29;8.77;;;2.83;;
37164;SDS011;23057;48.554;14.454;2023-07-20T07:06:00;4.88;;;3.15;;
37164;SDS011;23057;48.554;14.454;2023-07-20T07:08:31;5.55;;;2.95;;
37164;SDS011;23057;48.554;14.454;2023-07-20T07:11:02;6.85;;;3.20;;
37164;SDS011;23057;48.554;14.454;2023-07-20T07:13:33;5.65;;;3.08;;
37164;SDS011;23057;48.554;14.454;2023-07-20T07:16:04;5.25;;;2.80;;
37164;SDS011;23057;48.554;14.454;2023-07-20T07:18:35;4.80;;;3.30;;
37164;SDS011;23057;48.554;14.454;2023-07-20T07:21:05;6.15;;;2.63;;
37164;SDS011;23057;48.554;14.454;2023-07-20T07:23:37;6.80;;;3.10;;
37164;SDS011;23057;48.554;14.454;2023-07-20T07:26:09;7.55;;;3.20;;
37164;SDS011;23057;48.554;14.454;2023-07-20T07:28:40;7.00;;;3.58;;
37164;SDS011;23057;48.554;14.454;2023-07-20T07:31:11;9.27;;;3.42;;
37164;SDS011;23057;48.554;14.454;2023-07-20T07:33:42;7.90;;;3.10;;
37164;SDS011;23057;48.554;14.454;2023-07-20T07:36:13;5.38;;;3.25;;
37164;SDS011;23057;48.554;14.454;2023-07-20T07:38:43;6.78;;;3.25;;
37164;SDS011;23057;48.554;14.454;2023-07-20T07:41:14;4.40;;;2.88;;
37164;SDS011;23057;48.554;14.454;2023-07-20T07:43:45;5.53;;;3.20;;
37164;SDS011;23057;48.554;14.454;2023-07-20T07:46:16;6.15;;;3.17;;
37164;SDS011;23057;48.554;14.454;2023-07-20T07:48:47;5.55;;;3.05;;
37164;SDS011;23057;48.554;14.454;2023-07-20T07:51:19;5.00;;;3.35;;
37164;SDS011;23057;48.554;14.454;2023-07-20T07:53:50;6.10;;;3.42;;
37164;SDS011;23057;48.554;14.454;2023-07-20T07:56:21;6.20;;;2.92;;
37164;SDS011;23057;48.554;14.454;2023-07-20T07:58:52;5.22;;;2.72;;
37164;SDS011;23057;48.554;14.454;2023-07-20T08:01:23;6.22;;;3.05;;
37164;SDS011;23057;48.554;14.454;2023-07-20T08:03:54;7.03;;;3.25;;
37164;SDS011;23057;48.554;14.454;2023-07-20T08:06:25;5.18;;;3.22;;
37164;SDS011;23057;48.554;14.454;2023-07-20T08:08:56;6.07;;;3.83;;
37164;SDS011;23057;48.554;14.454;2023-07-20T08:11:27;7.78;;;4.07;;
37164;SDS011;23057;48.554;14.454;2023-07-20T08:14:00;9.30;;;3.97;;
37164;SDS011;23057;48.554;14.454;2023-07-20T08:16:31;5.25;;;3.55;;
37164;SDS011;23057;48.554;14.454;2023-07-20T08:19:02;8.90;;;4.20;;
37164;SDS011;23057;48.554;14.454;2023-07-20T08:21:33;8.32;;;3.75;;
37164;SDS011;23057;48.554;14.454;2023-07-20T08:24:03;6.18;;;3.22;;
37164;SDS011;23057;48.554;14.454;2023-07-20T08:26:35;9.10;;;3.45;;
37164;SDS011;23057;48.554;14.454;2023-07-20T08:29:05;7.85;;;3.25;;
37164;SDS011;23057;48.554;14.454;2023-07-20T08:31:36;6.57;;;3.38;;
37164;SDS011;23057;48.554;14.454;2023-07-20T08:34:07;8.35;;;2.90;;
37164;SDS011;23057;48.554;14.454;2023-07-20T08:36:38;5.22;;;2.78;;
37164;SDS011;23057;48.554;14.454;2023-07-20T08:39:08;3.50;;;2.50;;
37164;SDS011;23057;48.554;14.454;2023-07-20T08:41:40;7.78;;;2.72;;
37164;SDS011;23057;48.554;14.454;2023-07-20T08:44:16;5.45;;;2.92;;
37164;SDS011;23057;48.554;14.454;2023-07-20T08:46:48;6.85;;;2.72;;
37164;SDS011;23057;48.554;14.454;2023-07-20T08:49:20;5.47;;;2.80;;
37164;SDS011;23057;48.554;14.454;2023-07-20T08:51:52;5.68;;;2.35;;
37164;SDS011;23057;48.554;14.454;2023-07-20T08:54:24;5.70;;;2.88;;
37164;SDS011;23057;48.554;14.454;2023-07-20T08:57:04;7.85;;;2.30;;
37164;SDS011;23057;48.554;14.454;2023-07-20T08:59:37;3.65;;;2.30;;
37164;SDS011;23057;48.554;14.454;2023-07-20T09:02:09;3.22;;;2.63;;
37164;SDS011;23057;48.554;14.454;2023-07-20T09:04:47;6.10;;;3.20;;
37164;SDS011;23057;48.554;14.454;2023-07-20T09:07:19;6.13;;;2.80;;
37164;SDS011;23057;48.554;14.454;2023-07-20T09:09:51;4.93;;;2.72;;
37164;SDS011;23057;48.554;14.454;2023-07-20T09:12:22;8.45;;;2.40;;
37164;SDS011;23057;48.554;14.454;2023-07-20T09:14:53;3.95;;;2.42;;
37164;SDS011;23057;48.554;14.454;2023-07-20T09:17:27;4.82;;;2.45;;
37164;SDS011;23057;48.554;14.454;2023-07-20T09:19:58;5.63;;;1.92;;
37164;SDS011;23057;48.554;14.454;2023-07-20T09:22:43;4.85;;;1.95;;
37164;SDS011;23057;48.554;14.454;2023-07-20T09:25:15;4.07;;;2.22;;
37164;SDS011;23057;48.554;14.454;2023-07-20T09:27:52;3.35;;;1.98;;
37164;SDS011;23057;48.554;14.454;2023-07-20T09:30:26;4.18;;;1.90;;
37164;SDS011;23057;48.554;14.454;2023-07-20T09:32:57;3.92;;;1.98;;
37164;SDS011;23057;48.554;14.454;2023-07-20T09:35:29;2.65;;;1.85;;
37164;SDS011;23057;48.554;14.454;2023-07-20T09:38:00;3.92;;;2.00;;
37164;SDS011;23057;48.554;14.454;2023-07-20T09:40:37;4.13;;;1.77;;
37164;SDS011;23057;48.554;14.454;2023-07-20T09:43:11;2.28;;;1.70;;
37164;SDS011;23057;48.554;14.454;2023-07-20T09:45:42;3.90;;;1.88;;
37164;SDS011;23057;48.554;14.454;2023-07-20T09:48:13;3.38;;;1.83;;
37164;SDS011;23057;48.554;14.454;2023-07-20T09:50:50;4.50;;;1.70;;
37164;SDS011;23057;48.554;14.454;2023-07-20T09:53:22;3.88;;;1.60;;
37164;SDS011;23057;48.554;14.454;2023-07-20T09:55:56;4.40;;;1.90;;
37164;SDS011;23057;48.554;14.454;2023-07-20T09:58:29;3.78;;;1.55;;
37164;SDS011;23057;48.554;14.454;2023-07-20T10:01:04;4.65;;;1.90;;
37164;SDS011;23057;48.554;14.454;2023-07-20T10:03:39;2.83;;;1.83;;
37164;SDS011;23057;48.554;14.454;2023-07-20T10:06:17;3.45;;;1.90;;
37164;SDS011;23057;48.554;14.454;2023-07-20T10:08:55;3.88;;;1.60;;
37164;SDS011;23057;48.554;14.454;2023-07-20T10:11:35;2.85;;;1.67;;
37164;SDS011;23057;48.554;14.454;2023-07-20T10:14:09;3.42;;;1.83;;
37164;SDS011;23057;48.554;14.454;2023-07-20T10:16:54;2.45;;;1.60;;
37164;SDS011;23057;48.554;14.454;2023-07-20T10:19:39;3.17;;;1.65;;
37164;SDS011;23057;48.554;14.454;2023-07-20T10:22:24;5.80;;;2.00;;
37164;SDS011;23057;48.554;14.454;2023-07-20T10:24:59;4.18;;;1.83;;
37164;SDS011;23057;48.554;14.454;2023-07-20T10:27:31;4.32;;;2.60;;
37164;SDS011;23057;48.554;14.454;2023-07-20T10:30:02;5.80;;;2.05;;
37164;SDS011;23057;48.554;14.454;2023-07-20T10:32:35;4.45;;;1.95;;
37164;SDS011;23057;48.554;14.454;2023-07-20T10:35:16;3.88;;;1.83;;
37164;SDS011;23057;48.554;14.454;2023-07-20T10:37:55;2.90;;;1.73;;
37164;SDS011;23057;48.554;14.454;2023-07-20T10:40:33;2.97;;;1.90;;
37164;SDS011;23057;48.554;14.454;2023-07-20T10:43:09;5.50;;;2.10;;
37164;SDS011;23057;48.554;14.454;2023-07-20T10:45:51;2.40;;;1.65;;
37164;SDS011;23057;48.554;14.454;2023-07-20T10:48:24;3.38;;;1.90;;
37164;SDS011;23057;48.554;14.454;2023-07-20T10:51:08;5.93;;;1.92;;
37164;SDS011;23057;48.554;14.454;2023-07-20T10:53:49;3.60;;;1.70;;
37164;SDS011;23057;48.554;14.454;2023-07-20T10:56:22;2.70;;;1.85;;
37164;SDS011;23057;48.554;14.454;2023-07-20T10:58:59;4.25;;;1.58;;
37164;SDS011;23057;48.554;14.454;2023-07-20T11:01:47;3.70;;;2.00;;
37164;SDS011;23057;48.554;14.454;2023-07-20T11:04:19;4.95;;;1.60;;
37164;SDS011;23057;48.554;14.454;2023-07-20T11:07:35;3.00;;;1.58;;
37164;SDS011;23057;48.554;14.454;2023-07-20T11:10:13;5.72;;;1.70;;
37164;SDS011;23057;48.554;14.454;2023-07-20T11:18:28;6.10;;;1.58;;
37164;SDS011;23057;48.554;14.454;2023-07-20T11:21:00;4.85;;;1.73;;
37164;SDS011;23057;48.554;14.454;2023-07-20T11:23:32;2.35;;;1.42;;
37164;SDS011;23057;48.554;14.454;2023-07-20T11:26:04;4.85;;;1.73;;
37164;SDS011;23057;48.554;14.454;2023-07-20T11:28:35;2.60;;;1.85;;
37164;SDS011;23057;48.554;14.454;2023-07-20T11:31:06;3.25;;;1.60;;
37164;SDS011;23057;48.554;14.454;2023-07-20T11:33:37;7.72;;;2.13;;
37164;SDS011;23057;48.554;14.454;2023-07-20T11:36:08;3.92;;;1.45;;
37164;SDS011;23057;48.554;14.454;2023-07-20T11:38:42;3.08;;;1.80;;
37164;SDS011;23057;48.554;14.454;2023-07-20T11:41:15;2.22;;;1.77;;
37164;SDS011;23057;48.554;14.454;2023-07-20T11:43:47;7.07;;;1.60;;
37164;SDS011;23057;48.554;14.454;2023-07-20T11:46:18;4.43;;;1.75;;
37164;SDS011;23057;48.554;14.454;2023-07-20T11:48:49;2.70;;;1.50;;
37164;SDS011;23057;48.554;14.454;2023-07-20T11:51:29;3.85;;;2.40;;
37164;SDS011;23057;48.554;14.454;2023-07-20T11:54:02;3.53;;;2.00;;
37164;SDS011;23057;48.554;14.454;2023-07-20T11:56:36;4.07;;;1.40;;
37164;SDS011;23057;48.554;14.454;2023-07-20T11:59:12;4.13;;;1.70;;
37164;SDS011;23057;48.554;14.454;2023-07-20T12:01:43;3.95;;;1.73;;
37164;SDS011;23057;48.554;14.454;2023-07-20T12:04:15;5.30;;;1.80;;
37164;SDS011;23057;48.554;14.454;2023-07-20T12:06:46;2.90;;;1.60;;
37164;SDS011;23057;48.554;14.454;2023-07-20T12:09:17;2.92;;;1.75;;
37164;SDS011;23057;48.554;14.454;2023-07-20T12:11:49;3.10;;;1.45;;
37164;SDS011;23057;48.554;14.454;2023-07-20T12:14:20;3.17;;;1.67;;
37164;SDS011;23057;48.554;14.454;2023-07-20T12:16:55;3.42;;;1.50;;
37164;SDS011;23057;48.554;14.454;2023-07-20T12:19:26;3.22;;;1.73;;
37164;SDS011;23057;48.554;14.454;2023-07-20T12:21:57;1.80;;;1.10;;
37164;SDS011;23057;48.554;14.454;2023-07-20T12:24:31;4.30;;;1.88;;
37164;SDS011;23057;48.554;14.454;2023-07-20T12:27:03;2.90;;;1.77;;
37164;SDS011;23057;48.554;14.454;2023-07-20T12:29:34;4.70;;;1.83;;
37164;SDS011;23057;48.554;14.454;2023-07-20T12:32:06;3.20;;;1.80;;
37164;SDS011;23057;48.554;14.454;2023-07-20T12:34:38;5.32;;;1.90;;
37164;SDS011;23057;48.554;14.454;2023-07-20T12:37:08;2.78;;;1.27;;
37164;SDS011;23057;48.554;14.454;2023-07-20T12:39:39;3.00;;;1.30;;
37164;SDS011;23057;48.554;14.454;2023-07-20T12:42:10;4.50;;;1.63;;
37164;SDS011;23057;48.554;14.454;2023-07-20T12:44:41;3.78;;;1.60;;
37164;SDS011;23057;48.554;14.454;2023-07-20T12:47:12;3.63;;;1.85;;
37164;SDS011;23057;48.554;14.454;2023-07-20T12:49:43;3.30;;;1.80;;
37164;SDS011;23057;48.554;14.454;2023-07-20T12:52:15;2.97;;;1.42;;
37164;SDS011;23057;48.554;14.454;2023-07-20T12:54:46;4.32;;;1.60;;
37164;SDS011;23057;48.554;14.454;2023-07-20T12:57:16;2.38;;;1.27;;
37164;SDS011;23057;48.554;14.454;2023-07-20T12:59:48;2.53;;;1.30;;
37164;SDS011;23057;48.554;14.454;2023-07-20T13:02:18;3.55;;;1.65;;
37164;SDS011;23057;48.554;14.454;2023-07-20T13:04:49;2.58;;;1.48;;
37164;SDS011;23057;48.554;14.454;2023-07-20T13:07:28;4.05;;;1.52;;
37164;SDS011;23057;48.554;14.454;2023-07-20T13:10:09;2.40;;;1.60;;
37164;SDS011;23057;48.554;14.454;2023-07-20T13:12:41;2.22;;;1.38;;
37164;SDS011;23057;48.554;14.454;2023-07-20T13:15:12;4.53;;;1.55;;
37164;SDS011;23057;48.554;14.454;2023-07-20T13:17:43;3.83;;;1.70;;
37164;SDS011;23057;48.554;14.454;2023-07-20T13:20:15;2.05;;;1.40;;
37164;SDS011;23057;48.554;14.454;2023-07-20T13:22:46;3.33;;;1.50;;
37164;SDS011;23057;48.554;14.454;2023-07-20T13:25:17;3.72;;;1.58;;
37164;SDS011;23057;48.554;14.454;2023-07-20T13:27:49;3.45;;;1.65;;
37164;SDS011;23057;48.554;14.454;2023-07-20T13:30:19;1.95;;;1.33;;
37164;SDS011;23057;48.554;14.454;2023-07-20T13:32:51;2.67;;;1.50;;
37164;SDS011;23057;48.554;14.454;2023-07-20T13:35:22;5.13;;;1.73;;
37164;SDS011;23057;48.554;14.454;2023-07-20T13:37:53;2.38;;;1.42;;
37164;SDS011;23057;48.554;14.454;2023-07-20T13:40:24;2.28;;;1.45;;
37164;SDS011;23057;48.554;14.454;2023-07-20T13:42:55;2.22;;;1.10;;
37164;SDS011;23057;48.554;14.454;2023-07-20T13:45:25;4.72;;;1.50;;
37164;SDS011;23057;48.554;14.454;2023-07-20T13:47:56;4.03;;;1.52;;
37164;SDS011;23057;48.554;14.454;2023-07-20T13:50:27;1.70;;;1.27;;
37164;SDS011;23057;48.554;14.454;2023-07-20T13:52:58;4.43;;;1.52;;
37164;SDS011;23057;48.554;14.454;2023-07-20T13:55:29;2.60;;;1.73;;
37164;SDS011;23057;48.554;14.454;2023-07-20T13:58:01;3.47;;;1.90;;
37164;SDS011;23057;48.554;14.454;2023-07-20T14:00:31;3.75;;;2.20;;
37164;SDS011;23057;48.554;14.454;2023-07-20T14:03:03;4.15;;;1.60;;
37164;SDS011;23057;48.554;14.454;2023-07-20T14:05:34;1.92;;;1.38;;
37164;SDS011;23057;48.554;14.454;2023-07-20T14:08:05;2.97;;;1.50;;
37164;SDS011;23057;48.554;14.454;2023-07-20T14:10:36;2.83;;;1.40;;
37164;SDS011;23057;48.554;14.454;2023-07-20T14:13:07;4.90;;;1.80;;
37164;SDS011;23057;48.554;14.454;2023-07-20T14:15:38;3.45;;;1.25;;
37164;SDS011;23057;48.554;14.454;2023-07-20T14:18:09;2.83;;;1.50;;
37164;SDS011;23057;48.554;14.454;2023-07-20T14:20:40;4.00;;;1.23;;
37164;SDS011;23057;48.554;14.454;2023-07-20T14:23:11;7.53;;;1.45;;
37164;SDS011;23057;48.554;14.454;2023-07-20T14:25:42;2.38;;;1.40;;
37164;SDS011;23057;48.554;14.454;2023-07-20T14:28:13;3.28;;;1.52;;
37164;SDS011;23057;48.554;14.454;2023-07-20T14:30:43;3.33;;;1.30;;
37164;SDS011;23057;48.554;14.454;2023-07-20T14:33:14;3.55;;;1.55;;
37164;SDS011;23057;48.554;14.454;2023-07-20T14:35:45;3.28;;;1.75;;
37164;SDS011;23057;48.554;14.454;2023-07-20T14:38:16;2.42;;;1.67;;
37164;SDS011;23057;48.554;14.454;2023-07-20T14:40:47;2.63;;;1.45;;
37164;SDS011;23057;48.554;14.454;2023-07-20T14:43:17;2.05;;;1.20;;
37164;SDS011;23057;48.554;14.454;2023-07-20T14:45:48;3.85;;;1.20;;
37164;SDS011;23057;48.554;14.454;2023-07-20T14:48:19;3.20;;;1.48;;
37164;SDS011;23057;48.554;14.454;2023-07-20T14:50:50;3.08;;;1.60;;
37164;SDS011;23057;48.554;14.454;2023-07-20T14:53:21;3.47;;;1.13;;
37164;SDS011;23057;48.554;14.454;2023-07-20T14:55:52;2.80;;;1.20;;
37164;SDS011;23057;48.554;14.454;2023-07-20T14:58:22;4.13;;;1.40;;
37164;SDS011;23057;48.554;14.454;2023-07-20T15:00:53;3.50;;;1.40;;
37164;SDS011;23057;48.554;14.454;2023-07-20T15:03:24;2.83;;;1.52;;
37164;SDS011;23057;48.554;14.454;2023-07-20T15:05:55;3.47;;;1.55;;
37164;SDS011;23057;48.554;14.454;2023-07-20T15:08:26;3.20;;;1.63;;
37164;SDS011;23057;48.554;14.454;2023-07-20T15:10:56;2.35;;;1.33;;
37164;SDS011;23057;48.554;14.454;2023-07-20T15:13:27;3.53;;;1.33;;
37164;SDS011;23057;48.554;14.454;2023-07-20T15:15:58;2.00;;;1.27;;